Antes Fort, Pennsylvania
Current Conditions -  °F | °C
As of 7:54 AM on Sunday 23 Nov 2014 (Local Time) from KIPT Reporting Station
Haze Haze  
Wind Chill: 34°   Ceiling: 8500
Heat Index: 34°   Visibility: 5mi
Dew Point: 29°   Wind: 3mph
Humidity: 82%   Direction: 220°SW
Pressure: 30.18"   Gusts: NA
Location:  41.19°N, 77.22°W
Report Text: KIPT 231254Z 22003KT 5SM HZ OVC085 01/M02 A3018 RMK AO2 RAE09 SLP225 P0000 T00111017
Loading
Personal Weather Stations






























Interactive Weather Map New forecast layout! Learn more

10-Day Weather Forecast

Advertisements
Track Severe Weather on mobile